Time;durP1;ratioP1;P1;durP2;ratioP2;P2;SDS_P1;SDS_P2;PMS_P1;PMS_P2;Temp;Humidity;BMP_temperature;BMP_pressure;BME280_temperature;BME280_humidity;BME280_pressure;Samples;Min_cycle;Max_cycle;Signal;HPM_P1;HPM_P2
2022/11/04 00:01:58;;;;;;;2.13;0.98;;;10.30;99.90;;;;;;4985766;28;20443;-79
2022/11/04 00:04:25;;;;;;;2.53;1.10;;;10.30;99.90;;;;;;5008794;28;20092;-79
2022/11/04 00:06:52;;;;;;;4.72;0.77;;;10.30;99.90;;;;;;4974969;28;20034;-79
2022/11/04 00:09:31;;;;;;;2.45;0.70;;;10.20;99.90;;;;;;4989064;28;20046;-79
2022/11/04 00:14:41;;;;;;;2.88;0.60;;;10.20;99.90;;;;;;4992143;28;20595;-79
2022/11/04 00:17:23;;;;;;;2.25;0.55;;;10.10;99.90;;;;;;4991750;28;20125;-79
2022/11/04 00:33:24;;;;;;;1.73;0.90;;;10.00;99.90;;;;;;5008215;28;20136;-80
2022/11/04 00:33:48;;;;;;;2.95;1.10;;;10.00;99.90;;;;;;4991434;28;20050;-79
2022/11/04 00:36:13;;;;;;;1.98;1.05;;;10.00;99.90;;;;;;5007447;28;20089;-79
2022/11/04 00:38:39;;;;;;;7.47;1.30;;;10.00;99.90;;;;;;5007077;28;20043;-79
2022/11/04 00:41:24;;;;;;;2.65;1.48;;;10.00;99.90;;;;;;4973367;28;20037;-80
2022/11/04 00:43:51;;;;;;;3.42;1.30;;;10.00;99.90;;;;;;4975394;28;20424;-80
2022/11/04 00:46:16;;;;;;;4.55;1.30;;;10.10;99.90;;;;;;5008033;28;20042;-81
2022/11/04 00:48:42;;;;;;;2.63;1.10;;;10.10;99.90;;;;;;4974060;28;20121;-80
2022/11/04 00:51:07;;;;;;;4.07;1.05;;;10.10;99.90;;;;;;4998117;28;20480;-80
2022/11/04 00:53:33;;;;;;;2.75;1.15;;;10.10;99.90;;;;;;4991433;28;20046;-80
2022/11/04 00:55:59;;;;;;;4.40;1.08;;;10.10;99.90;;;;;;4973433;28;20485;-80
2022/11/04 00:58:24;;;;;;;6.22;1.30;;;10.00;99.90;;;;;;4989082;28;20046;-79
2022/11/04 01:00:50;;;;;;;7.28;1.75;;;10.00;99.90;;;;;;5006231;28;20038;-80
2022/11/04 01:03:15;;;;;;;4.63;1.42;;;10.00;99.90;;;;;;4982839;28;20082;-80
2022/11/04 01:05:41;;;;;;;3.88;1.27;;;10.00;99.90;;;;;;4991257;28;20081;-80
2022/11/04 01:08:06;;;;;;;3.28;1.10;;;10.00;99.90;;;;;;4974812;28;20105;-80
2022/11/04 01:10:35;;;;;;;3.72;1.10;;;10.00;99.90;;;;;;4974442;28;20564;-80
2022/11/04 01:13:01;;;;;;;4.90;1.30;;;10.00;99.90;;;;;;4974978;28;20057;-81
2022/11/04 01:15:26;;;;;;;3.80;1.05;;;10.00;99.90;;;;;;4974804;28;20042;-82
2022/11/04 01:17:52;;;;;;;5.03;1.38;;;10.00;99.90;;;;;;4989728;28;20043;-80
2022/11/04 01:20:17;;;;;;;1.95;0.93;;;10.00;99.90;;;;;;4983165;28;20412;-80
2022/11/04 01:22:43;;;;;;;4.25;1.17;;;10.00;99.90;;;;;;4982631;28;20097;-80
2022/11/04 01:25:09;;;;;;;3.67;1.20;;;10.00;99.90;;;;;;4987785;28;20038;-80
2022/11/04 01:27:34;;;;;;;2.75;1.30;;;9.90;99.90;;;;;;4985399;28;20172;-80
2022/11/04 01:30:00;;;;;;;5.15;1.25;;;10.00;99.90;;;;;;5021800;28;20045;-80
2022/11/04 01:32:27;;;;;;;5.18;1.70;;;10.00;99.90;;;;;;5005382;28;20049;-80
2022/11/04 01:34:52;;;;;;;5.97;2.00;;;10.00;99.90;;;;;;4974742;28;20046;-80
2022/11/04 01:37:18;;;;;;;4.63;2.25;;;10.00;99.90;;;;;;4974869;28;20057;-80
2022/11/04 01:39:43;;;;;;;7.88;2.67;;;10.00;99.90;;;;;;4973869;28;20048;-80
2022/11/04 01:42:12;;;;;;;7.00;2.97;;;10.10;99.90;;;;;;4998795;28;20421;-80
2022/11/04 01:44:41;;;;;;;7.22;3.75;;;10.10;99.90;;;;;;4995881;28;20035;-80
2022/11/04 01:47:16;;;;;;;10.23;4.60;;;10.10;99.90;;;;;;4983943;28;20416;-81
2022/11/04 01:49:45;;;;;;;9.50;4.82;;;10.10;99.90;;;;;;4985041;28;20057;-81
2022/11/04 01:52:20;;;;;;;14.35;5.47;;;10.10;99.90;;;;;;5010861;28;20042;-81
2022/11/04 01:54:48;;;;;;;12.13;5.57;;;10.10;99.90;;;;;;4997895;28;20038;-81
2022/11/04 01:57:19;;;;;;;19.08;7.18;;;10.10;99.90;;;;;;4989825;28;20034;-81
2022/11/04 01:59:45;;;;;;;18.55;7.40;;;10.20;99.90;;;;;;4978030;28;20039;-80
2022/11/04 02:02:10;;;;;;;15.32;7.03;;;10.20;99.90;;;;;;5011110;28;20034;-80
2022/11/04 02:04:38;;;;;;;29.95;8.77;;;10.20;99.90;;;;;;4978224;28;20409;-80
2022/11/04 02:07:07;;;;;;;19.88;7.47;;;10.20;99.90;;;;;;4978160;28;20057;-80
2022/11/04 02:09:35;;;;;;;20.52;8.45;;;10.20;99.90;;;;;;4993250;28;20092;-81
2022/11/04 02:14:46;;;;;;;26.00;9.25;;;10.20;99.90;;;;;;5013864;28;20057;-79
2022/11/04 02:17:18;;;;;;;19.73;8.07;;;10.20;99.90;;;;;;5003127;28;20038;-79
2022/11/04 02:20:17;;;;;;;22.27;8.45;;;10.20;99.90;;;;;;4977734;28;20114;-78
2022/11/04 02:23:05;;;;;;;22.55;8.57;;;10.20;99.90;;;;;;4996381;28;20045;-79
2022/11/04 02:25:31;;;;;;;19.42;7.43;;;10.20;99.90;;;;;;4977774;28;20034;-79
2022/11/04 02:28:12;;;;;;;12.82;6.05;;;10.20;99.90;;;;;;4977723;28;20515;-79
2022/11/04 02:30:52;;;;;;;11.10;4.90;;;10.20;99.90;;;;;;4975600;28;20038;-79
2022/11/04 02:33:53;;;;;;;9.60;4.30;;;10.20;99.90;;;;;;5010327;28;20497;-79
2022/11/04 02:36:38;;;;;;;8.98;3.00;;;10.10;99.90;;;;;;4964975;28;20413;-79
2022/11/04 02:39:42;;;;;;;8.13;2.70;;;10.10;99.90;;;;;;4958774;28;20042;-79
2022/11/04 02:42:37;;;;;;;9.82;2.80;;;10.10;99.90;;;;;;4987487;28;20047;-79
2022/11/04 02:45:05;;;;;;;7.53;3.20;;;10.00;99.90;;;;;;4976679;28;20122;-79
2022/11/04 02:47:35;;;;;;;6.47;3.88;;;10.00;99.90;;;;;;4981205;28;20039;-79
2022/11/04 02:50:08;;;;;;;14.57;4.30;;;9.90;99.90;;;;;;5009441;28;20069;-79
2022/11/04 02:52:33;;;;;;;;;;;9.90;99.90;;;;;;5001258;28;20507;-79
2022/11/04 02:55:08;;;;;;;9.82;3.30;;;9.90;99.90;;;;;;4993539;28;19918;-79
2022/11/04 02:57:37;;;;;;;7.07;2.70;;;9.90;99.90;;;;;;5009620;28;20065;-79
2022/11/04 03:00:08;;;;;;;4.47;2.20;;;9.90;99.90;;;;;;4988161;28;20085;-79
2022/11/04 03:02:39;;;;;;;8.40;2.20;;;9.90;99.90;;;;;;5016781;28;20030;-79
2022/11/04 03:05:09;;;;;;;9.68;2.40;;;9.90;99.90;;;;;;4977111;28;20165;-79
2022/11/04 03:07:39;;;;;;;8.15;2.55;;;9.90;99.90;;;;;;5009579;28;20126;-79
2022/11/04 03:10:12;;;;;;;6.97;2.15;;;9.80;99.90;;;;;;4977206;28;20034;-79
2022/11/04 03:12:55;;;;;;;12.00;2.53;;;9.80;99.90;;;;;;4969217;28;20041;-78
2022/11/04 03:15:27;;;;;;;3.08;1.10;;;9.80;99.90;;;;;;4976827;28;20038;-79
2022/11/04 03:18:17;;;;;;;2.97;1.30;;;9.70;99.90;;;;;;4976726;28;20093;-79
2022/11/04 03:20:47;;;;;;;3.97;1.20;;;9.70;99.90;;;;;;4976436;28;20403;-78
2022/11/04 03:23:13;;;;;;;3.05;1.10;;;9.60;99.90;;;;;;4976864;28;20038;-79
2022/11/04 03:25:47;;;;;;;4.38;1.27;;;9.60;99.90;;;;;;4976569;28;20117;-78
2022/11/04 03:28:19;;;;;;;6.70;1.50;;;9.60;99.90;;;;;;5017355;28;20138;-79
2022/11/04 03:30:48;;;;;;;4.33;1.50;;;9.60;99.90;;;;;;4992124;28;20496;-78
2022/11/04 03:33:20;;;;;;;3.90;0.90;;;9.60;99.90;;;;;;4976702;28;20121;-78
2022/11/04 03:35:45;;;;;;;5.30;1.33;;;9.50;99.90;;;;;;4996212;28;20059;-78
2022/11/04 03:38:11;;;;;;;6.60;1.48;;;9.60;99.90;;;;;;4956829;28;20568;-78
2022/11/04 03:40:37;;;;;;;7.30;1.50;;;9.50;99.90;;;;;;4959026;28;20516;-78
2022/11/04 03:43:09;;;;;;;4.10;1.30;;;9.50;99.90;;;;;;5009037;28;20128;-78
2022/11/04 03:45:35;;;;;;;3.33;1.20;;;9.50;99.90;;;;;;5008926;28;20046;-78
2022/11/04 03:48:01;;;;;;;2.60;1.50;;;9.50;99.90;;;;;;5008840;28;20393;-78
2022/11/04 03:50:32;;;;;;;9.63;1.80;;;9.50;99.90;;;;;;4981792;28;20042;-78
2022/11/04 03:52:59;;;;;;;4.07;1.42;;;9.50;99.90;;;;;;5024580;28;20046;-78
2022/11/04 03:55:42;;;;;;;3.10;1.40;;;9.50;99.90;;;;;;5009284;28;20072;-78
2022/11/04 03:58:16;;;;;;;5.43;1.38;;;9.50;99.90;;;;;;4975993;28;20034;-78
2022/11/04 04:00:50;;;;;;;4.40;1.38;;;9.50;99.90;;;;;;4975174;28;20035;-78
2022/11/04 04:03:27;;;;;;;3.90;1.40;;;9.50;99.90;;;;;;4988372;28;20039;-79
2022/11/04 04:06:13;;;;;;;2.42;1.10;;;9.50;99.90;;;;;;4985498;28;20238;-78
2022/11/04 04:08:51;;;;;;;2.42;0.90;;;9.40;99.90;;;;;;5024331;28;20115;-78
2022/11/04 04:11:38;;;;;;;5.30;1.20;;;9.40;99.90;;;;;;4975546;28;20039;-79
2022/11/04 04:14:39;;;;;;;2.60;1.05;;;9.40;99.90;;;;;;4991393;28;20085;-78
2022/11/04 04:17:17;;;;;;;5.85;1.42;;;9.40;99.90;;;;;;5007887;28;20084;-78
2022/11/04 04:19:58;;;;;;;6.20;1.38;;;9.30;99.90;;;;;;5012566;28;20044;-78
2022/11/04 04:22:32;;;;;;;3.85;1.10;;;9.30;99.90;;;;;;4972502;28;20074;-78
2022/11/04 04:27:47;;;;;;;6.35;1.30;;;9.20;99.90;;;;;;4974864;28;20061;-78
2022/11/04 04:30:15;;;;;;;7.15;1.20;;;9.20;99.90;;;;;;4998794;28;20124;-78
2022/11/04 04:32:52;;;;;;;3.60;1.10;;;9.20;99.90;;;;;;4982876;28;20468;-78
2022/11/04 04:46:51;;;;;;;1.92;1.10;;;9.20;99.90;;;;;;4953799;28;20153;-77
2022/11/04 04:53:30;;;;;;;;;;;;;;;;;;;;;
2022/11/04 05:02:40;;;;;;;3.17;1.20;;;9.20;99.90;;;;;;4997077;28;20034;-78
2022/11/04 05:05:45;;;;;;;7.60;1.08;;;9.10;99.90;;;;;;4889176;29;20048;-77
2022/11/04 05:09:02;;;;;;;2.00;0.80;;;9.20;99.90;;;;;;4991151;28;20043;-77
2022/11/04 05:15:38;;;;;;;3.83;1.10;;;9.00;99.90;;;;;;5015435;22;20147;-77
2022/11/04 05:18:51;;;;;;;3.45;1.17;;;9.00;99.90;;;;;;4976959;28;20140;-77
2022/11/04 05:22:26;;;;;;;5.72;1.20;;;9.00;99.90;;;;;;4956346;28;20061;-77
2022/11/04 05:29:16;;;;;;;6.35;2.33;;;8.70;99.90;;;;;;4930368;29;20055;-79
2022/11/04 05:32:23;;;;;;;6.80;2.60;;;8.60;99.90;;;;;;4956680;28;20408;-79
2022/11/04 05:35:12;;;;;;;4.20;1.80;;;8.60;99.90;;;;;;4962320;28;20046;-79
2022/11/04 05:38:39;;;;;;;8.52;2.30;;;8.70;99.90;;;;;;4944014;29;20042;-79
2022/11/04 05:41:57;;;;;;;5.95;1.40;;;8.70;99.90;;;;;;4947207;28;20054;-79
2022/11/04 05:45:27;;;;;;;2.97;1.00;;;8.60;99.90;;;;;;4953923;28;20416;-79
2022/11/04 05:51:40;;;;;;;3.83;0.88;;;8.60;99.90;;;;;;4961852;29;20505;-79
2022/11/04 05:54:33;;;;;;;8.18;1.10;;;8.50;99.90;;;;;;4966224;28;20112;-79
2022/11/04 05:57:37;;;;;;;3.33;1.00;;;8.40;99.90;;;;;;4970231;28;20383;-79
2022/11/04 06:00:20;;;;;;;2.38;0.80;;;8.40;99.90;;;;;;4951297;28;20045;-79
2022/11/04 06:03:03;;;;;;;;;;;;;;;;;;;;;
2022/11/04 06:05:39;;;;;;;2.15;0.60;;;8.20;99.90;;;;;;4960794;28;20063;-79
2022/11/04 06:08:30;;;;;;;2.50;0.55;;;8.10;99.90;;;;;;4931456;28;20058;-79
2022/11/04 06:11:25;;;;;;;3.58;0.90;;;8.10;99.90;;;;;;4979179;28;20039;-79
2022/11/04 06:14:26;;;;;;;;;;;;;;;;;;;;;
2022/11/04 06:17:06;;;;;;;4.07;1.00;;;8.00;99.90;;;;;;4958984;28;20397;-79
2022/11/04 06:20:10;;;;;;;2.35;1.08;;;8.00;99.90;;;;;;4939416;28;20129;-79
2022/11/04 06:22:46;;;;;;;6.50;1.27;;;8.00;99.90;;;;;;4959167;28;20034;-79
2022/11/04 06:26:06;;;;;;;6.22;1.58;;;7.90;99.90;;;;;;4933014;28;20067;-79
2022/11/04 06:28:40;;;;;;;4.30;1.77;;;7.90;99.90;;;;;;4922320;28;20100;-79
2022/11/04 06:31:44;;;;;;;5.57;1.52;;;7.80;99.90;;;;;;4964726;28;20042;-79
2022/11/04 06:34:36;;;;;;;6.70;2.00;;;7.80;99.90;;;;;;4965507;28;20607;-79
2022/11/04 06:37:28;;;;;;;9.35;2.80;;;7.80;99.90;;;;;;4906352;29;20044;-79
2022/11/04 06:40:16;;;;;;;12.40;3.70;;;7.90;99.90;;;;;;4855688;29;20448;-79
2022/11/04 06:43:34;;;;;;;16.73;5.18;;;7.90;99.90;;;;;;4959287;28;20133;-79
2022/11/04 06:46:31;;;;;;;19.15;6.72;;;8.00;99.90;;;;;;4961545;28;20034;-79
2022/11/04 06:49:33;;;;;;;16.48;6.72;;;8.10;99.90;;;;;;4954832;28;20034;-79
2022/11/04 06:56:02;;;;;;;26.83;9.45;;;8.10;99.90;;;;;;5056881;23;20137;-79
2022/11/04 06:58:55;;;;;;;32.58;10.60;;;8.10;99.90;;;;;;4991034;28;20047;-79
2022/11/04 07:02:05;;;;;;;28.20;10.93;;;8.10;99.90;;;;;;4973319;28;20485;-79
2022/11/04 07:07:27;;;;;;;44.65;13.60;;;8.10;99.90;;;;;;5310371;23;20055;-78
2022/11/04 07:10:55;;;;;;;45.50;15.70;;;8.10;99.90;;;;;;4949331;29;20529;-79
2022/11/04 07:13:36;;;;;;;48.55;16.58;;;8.10;99.90;;;;;;4952092;28;20038;-79
2022/11/04 07:16:09;;;;;;;57.08;18.42;;;8.20;99.90;;;;;;4962363;28;20493;-80
2022/11/04 07:18:35;;;;;;;64.22;18.65;;;8.30;99.90;;;;;;4950172;28;20031;-80
2022/11/04 07:24:29;;;;;;;61.33;19.73;;;8.40;99.90;;;;;;4956716;28;20034;-80
2022/11/04 07:27:23;;;;;;;84.85;22.35;;;8.50;99.90;;;;;;4914308;29;20047;-79
2022/11/04 07:30:19;;;;;;;74.63;21.80;;;8.50;99.90;;;;;;4953278;28;20042;-79
2022/11/04 07:33:07;;;;;;;;;;;;;;;;;;;;;
2022/11/04 07:35:41;;;;;;;70.70;21.92;;;8.60;99.90;;;;;;4958699;28;20046;-79
2022/11/04 07:38:18;;;;;;;79.20;21.67;;;8.70;99.90;;;;;;4940515;28;20130;-79
2022/11/04 07:40:48;;;;;;;67.32;21.75;;;8.70;99.90;;;;;;4953231;28;20036;-78
2022/11/04 07:43:25;;;;;;;93.28;23.67;;;8.90;99.90;;;;;;4939571;28;20039;-79
2022/11/04 07:46:11;;;;;;;61.78;19.80;;;8.80;99.90;;;;;;4966302;28;20051;-78
2022/11/04 07:48:59;;;;;;;103.55;22.67;;;8.90;99.90;;;;;;4946433;28;20049;-79
2022/11/04 07:51:37;;;;;;;80.90;22.83;;;8.90;99.90;;;;;;4943776;28;20405;-79
2022/11/04 07:54:03;;;;;;;115.35;25.30;;;9.00;99.90;;;;;;4931453;28;20039;-79
2022/11/04 07:56:28;;;;;;;71.82;23.35;;;9.10;99.90;;;;;;4949557;28;20065;-79
2022/11/04 07:59:05;;;;;;;83.50;24.48;;;9.10;99.90;;;;;;4914369;29;20486;-79
2022/11/04 08:01:31;;;;;;;101.95;26.90;;;9.20;99.90;;;;;;4937363;28;20493;-79
2022/11/04 08:03:59;;;;;;;92.55;25.55;;;9.20;99.90;;;;;;4957332;29;20046;-79
2022/11/04 08:06:29;;;;;;;62.85;22.85;;;9.20;99.90;;;;;;4925248;29;20098;-79
2022/11/04 08:08:58;;;;;;;55.60;21.55;;;9.30;99.90;;;;;;4943012;28;20362;-79
2022/11/04 08:11:33;;;;;;;65.65;23.08;;;9.30;99.90;;;;;;4935526;28;20047;-79
2022/11/04 08:14:07;;;;;;;88.35;23.30;;;9.40;99.90;;;;;;4943752;28;20051;-79
2022/11/04 08:16:42;;;;;;;86.93;22.88;;;9.40;99.90;;;;;;4943430;28;20042;-79
2022/11/04 08:19:13;;;;;;;57.47;20.77;;;9.40;99.90;;;;;;4956539;28;20495;-79
2022/11/04 08:21:42;;;;;;;51.55;19.92;;;9.30;99.90;;;;;;4941853;28;20165;-79
2022/11/04 08:24:08;;;;;;;71.93;20.80;;;9.40;99.90;;;;;;4953774;28;20178;-79
2022/11/04 08:26:34;;;;;;;49.28;18.70;;;9.40;99.90;;;;;;4954495;28;20328;-79
2022/11/04 08:29:11;;;;;;;63.63;19.65;;;9.30;99.90;;;;;;4948136;28;20039;-82
2022/11/04 08:31:45;;;;;;;59.72;21.35;;;9.30;99.90;;;;;;4948801;28;20042;-80
2022/11/04 08:34:11;;;;;;;73.45;20.00;;;9.20;99.90;;;;;;4944493;28;20141;-78
2022/11/04 08:36:39;;;;;;;46.97;19.67;;;9.10;99.90;;;;;;4946146;28;20133;-78
2022/11/04 08:39:09;;;;;;;91.60;22.65;;;9.10;99.90;;;;;;4956700;28;20039;-79
2022/11/04 08:41:39;;;;;;;96.05;25.95;;;9.10;99.90;;;;;;4970625;28;20042;-79
2022/11/04 08:44:24;;;;;;;101.72;24.67;;;9.10;99.90;;;;;;4934639;28;20445;-83
2022/11/04 08:46:56;;;;;;;88.28;27.17;;;9.10;99.90;;;;;;4921351;28;20039;-80
2022/11/04 08:49:40;;;;;;;90.93;28.77;;;9.20;99.90;;;;;;4951761;28;20077;-77
2022/11/04 08:52:09;;;;;;;94.78;30.60;;;9.30;99.90;;;;;;4960607;28;20066;-77
2022/11/04 08:54:37;;;;;;;93.63;30.90;;;9.40;99.90;;;;;;4960302;28;20085;-78
2022/11/04 08:57:08;;;;;;;94.25;29.60;;;9.50;99.90;;;;;;4957577;28;20467;-78
2022/11/04 08:59:36;;;;;;;76.88;28.60;;;9.50;99.90;;;;;;4943151;28;20031;-78
2022/11/04 09:02:02;;;;;;;114.28;30.70;;;9.50;99.90;;;;;;4957703;28;20078;-78
2022/11/04 09:04:28;;;;;;;66.43;28.27;;;9.50;99.90;;;;;;4942681;28;20444;-78
2022/11/04 09:06:56;;;;;;;87.57;30.33;;;9.50;99.90;;;;;;4939139;28;20485;-77
2022/11/04 09:09:22;;;;;;;87.88;30.80;;;9.50;99.90;;;;;;4940007;28;20053;-78
2022/11/04 09:11:58;;;;;;;69.13;31.00;;;9.50;99.90;;;;;;4943745;28;20047;-78
2022/11/04 09:14:39;;;;;;;103.25;32.78;;;9.60;99.90;;;;;;4954054;28;20218;-78
2022/11/04 09:17:05;;;;;;;116.93;34.28;;;9.70;99.90;;;;;;4940714;28;20050;-78
2022/11/04 09:19:31;;;;;;;131.10;37.47;;;9.90;99.90;;;;;;4946008;28;20038;-79
2022/11/04 09:22:03;;;;;;;47.78;28.13;;;9.90;99.90;;;;;;4954618;28;20108;-80
2022/11/04 09:24:34;;;;;;;50.00;28.45;;;10.00;99.90;;;;;;4943075;28;20043;-80
2022/11/04 09:27:00;;;;;;;61.92;28.10;;;10.00;99.90;;;;;;4951128;28;20125;-78
2022/11/04 09:29:25;;;;;;;57.78;27.90;;;10.00;99.90;;;;;;4945802;28;20528;-80
2022/11/04 09:31:55;;;;;;;61.60;28.23;;;10.00;99.90;;;;;;4943964;28;20051;-79
2022/11/04 09:34:21;;;;;;;56.25;26.55;;;10.00;99.90;;;;;;4952137;28;20061;-78
2022/11/04 09:36:47;;;;;;;65.85;29.25;;;10.00;99.90;;;;;;4948989;28;20425;-78
2022/11/04 09:39:12;;;;;;;73.72;30.50;;;10.00;99.90;;;;;;4944948;28;20520;-78
2022/11/04 09:41:51;;;;;;;88.97;30.52;;;10.20;99.90;;;;;;4929182;28;20122;-78
2022/11/04 09:44:40;;;;;;;55.78;27.25;;;10.70;99.90;;;;;;4966935;28;20077;-78
2022/11/04 09:47:09;;;;;;;55.28;27.27;;;10.90;99.90;;;;;;4942936;28;20038;-78
2022/11/04 09:49:43;;;;;;;43.70;27.20;;;11.00;99.90;;;;;;4942888;29;20035;-78
2022/11/04 09:52:24;;;;;;;46.65;26.23;;;11.30;99.90;;;;;;4962034;28;20046;-79
2022/11/04 09:55:15;;;;;;;42.65;24.65;;;11.60;99.90;;;;;;4941862;28;20070;-79
2022/11/04 09:57:41;;;;;;;41.80;24.73;;;11.80;99.90;;;;;;4944545;28;20073;-78
2022/11/04 10:00:14;;;;;;;48.28;23.77;;;11.60;99.90;;;;;;4954504;28;20383;-78
2022/11/04 10:03:07;;;;;;;41.53;24.38;;;11.60;99.90;;;;;;4963926;28;20481;-80
2022/11/04 10:06:21;;;;;;;37.60;25.63;;;11.50;99.90;;;;;;4928613;28;20497;-80
2022/11/04 10:09:12;;;;;;;32.58;23.70;;;11.60;99.90;;;;;;4931833;28;20043;-80
2022/11/04 10:11:53;;;;;;;35.03;24.75;;;11.70;99.90;;;;;;4933954;28;20127;-81
2022/11/04 10:14:53;;;;;;;29.58;23.05;;;11.80;99.90;;;;;;4939586;28;20105;-81
2022/11/04 10:17:22;;;;;;;53.50;24.02;;;11.90;99.90;;;;;;4964372;28;20128;-79
2022/11/04 10:20:12;;;;;;;29.92;23.50;;;11.90;99.90;;;;;;4927502;28;20405;-80
2022/11/04 10:23:19;;;;;;;27.30;23.48;;;12.00;99.90;;;;;;4945534;28;20085;-79
2022/11/04 10:25:59;;;;;;;33.13;24.00;;;11.90;99.90;;;;;;4955736;28;20523;-79
2022/11/04 10:28:39;;;;;;;29.02;23.80;;;11.90;99.90;;;;;;4941964;28;20039;-82
2022/11/04 10:31:27;;;;;;;34.95;25.73;;;12.00;99.90;;;;;;4953166;28;20102;-79
2022/11/04 10:34:01;;;;;;;29.70;23.38;;;12.30;99.90;;;;;;4950326;28;20085;-80
2022/11/04 10:36:31;;;;;;;30.13;22.45;;;12.50;99.90;;;;;;4937020;28;20090;-79
2022/11/04 10:38:57;;;;;;;33.40;22.38;;;12.30;99.90;;;;;;4945950;28;20644;-80
2022/11/04 10:41:23;;;;;;;27.63;21.92;;;12.10;99.90;;;;;;4961480;28;20117;-80
2022/11/04 10:44:19;;;;;;;26.67;21.45;;;11.90;99.90;;;;;;4947202;29;20382;-80
2022/11/04 10:47:01;;;;;;;24.88;22.20;;;11.80;99.90;;;;;;4955121;28;20035;-80
2022/11/04 10:49:51;;;;;;;35.70;24.73;;;11.70;99.90;;;;;;4955604;28;20043;-80
2022/11/04 10:52:17;;;;;;;34.30;27.13;;;11.60;99.90;;;;;;4944300;28;20445;-80
2022/11/04 10:54:47;;;;;;;36.63;26.33;;;11.80;99.90;;;;;;4940804;28;20051;-80
2022/11/04 10:57:27;;;;;;;27.48;23.90;;;12.00;99.90;;;;;;4932777;28;20043;-80
2022/11/04 10:59:59;;;;;;;27.35;22.90;;;12.20;99.90;;;;;;4948665;28;20034;-79
2022/11/04 11:02:40;;;;;;;34.03;25.88;;;12.30;99.90;;;;;;4945495;28;20109;-79
2022/11/04 11:05:14;;;;;;;30.35;25.92;;;12.40;99.90;;;;;;4948438;28;20037;-78
2022/11/04 11:07:40;;;;;;;32.17;25.33;;;12.60;99.90;;;;;;4951090;28;20069;-79
2022/11/04 11:10:49;;;;;;;29.50;23.58;;;12.70;99.90;;;;;;4984349;28;20069;-81
2022/11/04 11:13:32;;;;;;;26.42;21.23;;;12.80;99.90;;;;;;4917583;28;20054;-79
2022/11/04 11:16:19;;;;;;;25.25;20.48;;;12.90;99.90;;;;;;4951465;28;20042;-79
2022/11/04 11:19:11;;;;;;;22.10;19.00;;;13.00;99.90;;;;;;4961660;28;20038;-79
2022/11/04 11:21:47;;;;;;;21.20;18.08;;;13.00;99.90;;;;;;4944974;28;20065;-80
2022/11/04 11:24:19;;;;;;;17.67;15.23;;;13.10;99.90;;;;;;4955721;28;20255;-80
2022/11/04 11:26:48;;;;;;;20.08;15.82;;;13.10;99.90;;;;;;4952958;28;20124;-79
2022/11/04 11:29:25;;;;;;;20.08;15.52;;;13.10;99.90;;;;;;4952157;28;20053;-79
2022/11/04 11:31:53;;;;;;;19.10;16.20;;;13.20;99.90;;;;;;4939876;28;20096;-79
2022/11/04 11:34:35;;;;;;;18.15;15.60;;;13.30;99.90;;;;;;4943575;28;20034;-79
2022/11/04 11:37:03;;;;;;;12.23;10.88;;;13.40;99.90;;;;;;4944482;28;20046;-78
2022/11/04 11:39:36;;;;;;;13.45;9.82;;;13.50;99.90;;;;;;4946077;28;20396;-80
2022/11/04 11:42:25;;;;;;;11.57;6.75;;;13.50;99.90;;;;;;4965090;28;20508;-79
2022/11/04 11:44:56;;;;;;;9.95;6.70;;;13.70;99.90;;;;;;4944671;28;20497;-79
2022/11/04 11:47:28;;;;;;;9.43;7.75;;;13.90;99.90;;;;;;4940713;28;20045;-79
2022/11/04 11:50:19;;;;;;;10.35;7.40;;;14.10;99.90;;;;;;4951113;28;20046;-79
2022/11/04 11:52:47;;;;;;;12.10;8.52;;;14.20;99.90;;;;;;4943461;28;20045;-79
2022/11/04 11:55:36;;;;;;;12.10;7.93;;;14.30;99.90;;;;;;4944934;28;20038;-79
2022/11/04 11:58:18;;;;;;;8.70;6.85;;;14.40;99.90;;;;;;4952216;28;20034;-79
2022/11/04 12:01:01;;;;;;;8.90;6.50;;;14.30;99.90;;;;;;4942063;28;20042;-79
2022/11/04 12:03:32;;;;;;;10.05;6.90;;;14.10;99.90;;;;;;4952852;28;20481;-79
2022/11/04 12:06:12;;;;;;;11.63;7.28;;;13.90;99.90;;;;;;4947720;28;20496;-79
2022/11/04 12:08:56;;;;;;;10.10;7.28;;;13.70;99.90;;;;;;4937621;28;20080;-78
2022/11/04 12:12:03;;;;;;;9.93;6.72;;;13.60;99.90;;;;;;4937238;28;20457;-79
2022/11/04 12:14:35;;;;;;;8.30;6.55;;;13.30;99.90;;;;;;4927970;29;20057;-79
2022/11/04 12:17:23;;;;;;;10.23;7.60;;;13.20;99.90;;;;;;4956092;28;20042;-79
2022/11/04 12:20:02;;;;;;;11.45;7.15;;;13.00;99.90;;;;;;4951242;28;20400;-79
2022/11/04 12:22:48;;;;;;;12.05;9.13;;;12.90;99.90;;;;;;4940847;28;20047;-79
2022/11/04 12:25:37;;;;;;;10.05;8.05;;;12.90;99.90;;;;;;4940701;28;20074;-79
2022/11/04 12:28:23;;;;;;;11.20;7.82;;;12.90;99.90;;;;;;4940376;28;20501;-79
2022/11/04 12:31:09;;;;;;;10.23;8.10;;;12.80;99.90;;;;;;4965763;28;20061;-79
2022/11/04 12:33:58;;;;;;;10.50;7.43;;;12.90;99.90;;;;;;4931813;28;20471;-79
2022/11/04 12:36:28;;;;;;;9.57;6.97;;;13.00;99.90;;;;;;4940019;28;20568;-79
2022/11/04 12:39:09;;;;;;;9.93;7.80;;;13.20;99.90;;;;;;4940323;28;20421;-79
2022/11/04 12:42:00;;;;;;;9.25;7.43;;;13.30;99.90;;;;;;4951028;28;20047;-79
2022/11/04 12:44:36;;;;;;;10.48;8.43;;;13.20;99.90;;;;;;4946064;28;20039;-79
2022/11/04 12:47:32;;;;;;;11.23;7.82;;;13.20;99.90;;;;;;4920913;29;20043;-79
2022/11/04 12:50:04;;;;;;;9.60;7.35;;;13.00;99.90;;;;;;4920913;29;20043;-79
2022/11/04 12:52:53;;;;;;;12.40;8.02;;;12.90;99.90;;;;;;4920936;28;20046;-79
2022/11/04 12:55:43;;;;;;;8.30;7.40;;;12.80;99.90;;;;;;4921074;29;20062;-79
2022/11/04 12:58:41;;;;;;;8.05;6.82;;;12.70;99.90;;;;;;4921167;28;20505;-79
2022/11/04 13:01:18;;;;;;;8.02;5.75;;;12.50;99.90;;;;;;4940526;28;20047;-79
2022/11/04 13:03:49;;;;;;;6.75;2.85;;;12.40;99.90;;;;;;4939945;28;20035;-79
2022/11/04 13:06:33;;;;;;;4.05;2.10;;;12.40;99.90;;;;;;4956223;28;20047;-79
2022/11/04 13:09:04;;;;;;;5.20;1.80;;;12.30;99.90;;;;;;4955616;28;20424;-79
2022/11/04 13:11:44;;;;;;;5.78;1.80;;;12.20;99.90;;;;;;4938163;28;20053;-79
2022/11/04 13:14:19;;;;;;;3.50;1.40;;;12.10;99.90;;;;;;4932042;28;20061;-79
2022/11/04 13:16:49;;;;;;;5.70;1.75;;;12.10;99.90;;;;;;4940155;28;20049;-79
2022/11/04 13:19:29;;;;;;;3.42;1.10;;;12.10;99.90;;;;;;4940237;28;20031;-77
2022/11/04 13:21:57;;;;;;;6.25;1.48;;;12.00;99.90;;;;;;4927462;29;20050;-77
2022/11/04 13:24:30;;;;;;;3.42;0.80;;;12.00;99.90;;;;;;4926505;29;20126;-77
2022/11/04 13:27:02;;;;;;;4.25;1.10;;;12.10;99.90;;;;;;4920518;29;20130;-77
2022/11/04 13:29:33;;;;;;;5.07;1.40;;;12.00;99.90;;;;;;4936872;29;20511;-77
2022/11/04 13:32:15;;;;;;;5.22;1.20;;;12.00;99.90;;;;;;4920786;29;20047;-77
2022/11/04 13:34:53;;;;;;;5.20;1.17;;;11.90;99.90;;;;;;4922665;29;20493;-77
2022/11/04 13:37:25;;;;;;;5.00;1.67;;;11.80;99.90;;;;;;4938421;28;20093;-77
2022/11/04 13:39:51;;;;;;;7.63;1.20;;;11.70;99.90;;;;;;4939711;28;20515;-77
2022/11/04 13:42:16;;;;;;;7.15;1.40;;;11.60;99.90;;;;;;4940354;28;20137;-77
2022/11/04 13:44:48;;;;;;;3.47;1.23;;;11.60;99.90;;;;;;4940254;28;20362;-77
2022/11/04 13:47:26;;;;;;;3.40;1.10;;;11.50;99.90;;;;;;4940026;28;20035;-77
2022/11/04 13:49:54;;;;;;;4.82;1.27;;;11.50;99.90;;;;;;4940436;29;20289;-77
2022/11/04 13:52:22;;;;;;;4.55;1.23;;;11.50;99.90;;;;;;4956775;29;20126;-77
2022/11/04 13:55:01;;;;;;;6.55;1.20;;;11.40;99.90;;;;;;4940888;28;20453;-77
2022/11/04 13:57:29;;;;;;;6.95;1.52;;;11.40;99.90;;;;;;4924821;29;20057;-77
2022/11/04 14:00:07;;;;;;;7.13;1.65;;;11.40;99.90;;;;;;4930600;28;20516;-77
2022/11/04 14:02:53;;;;;;;5.03;1.30;;;11.40;99.90;;;;;;4924546;29;20047;-77
2022/11/04 14:05:28;;;;;;;3.22;1.35;;;11.30;99.90;;;;;;4924656;29;20073;-77
2022/11/04 14:08:00;;;;;;;5.22;1.50;;;11.30;99.90;;;;;;4924462;29;20047;-77
2022/11/04 14:10:47;;;;;;;4.00;1.30;;;11.20;99.90;;;;;;4924418;29;20087;-77
2022/11/04 14:13:36;;;;;;;3.20;1.20;;;11.20;99.90;;;;;;4925860;28;20050;-77
2022/11/04 14:16:12;;;;;;;7.15;1.35;;;11.10;99.90;;;;;;4943459;28;20039;-77
2022/11/04 14:18:44;;;;;;;5.03;1.50;;;11.10;99.90;;;;;;4943031;28;20073;-77
2022/11/04 14:21:13;;;;;;;3.20;1.17;;;11.00;99.90;;;;;;4943320;28;20065;-77
2022/11/04 14:23:49;;;;;;;4.38;1.50;;;11.00;99.90;;;;;;4942792;28;20073;-77
2022/11/04 14:26:40;;;;;;;3.20;1.40;;;10.90;99.90;;;;;;4941567;28;20042;-77
2022/11/04 14:29:14;;;;;;;5.47;1.50;;;10.90;99.90;;;;;;4939676;29;20494;-77
2022/11/04 14:31:46;;;;;;;5.50;1.20;;;10.80;99.90;;;;;;4930627;28;20567;-77
2022/11/04 14:34:28;;;;;;;2.22;1.17;;;10.80;99.90;;;;;;4934513;28;20031;-77
2022/11/04 14:36:56;;;;;;;6.68;1.20;;;10.80;99.90;;;;;;4942684;28;20102;-77
2022/11/04 14:39:27;;;;;;;7.38;1.38;;;10.80;99.90;;;;;;4942136;28;20512;-77
2022/11/04 14:41:57;;;;;;;4.93;1.40;;;10.80;99.90;;;;;;4942950;28;20054;-77
2022/11/04 14:44:30;;;;;;;5.25;1.30;;;10.80;99.90;;;;;;4958981;28;20050;-77
2022/11/04 14:47:18;;;;;;;5.03;1.10;;;10.70;99.90;;;;;;4942450;28;20105;-77